Time;durP1;ratioP1;P1;durP2;ratioP2;P2;SDS_P1;SDS_P2;PMS_P1;PMS_P2;Temp;Humidity;BMP_temperature;BMP_pressure;BME280_temperature;BME280_humidity;BME280_pressure;Samples;Min_cycle;Max_cycle;Signal;HPM_P1;HPM_P2
2022/10/09 00:00:39;;;;;;;5.60;3.67;;;6.50;99.90;;;;;;5084675;28;20028;-38
2022/10/09 00:03:05;;;;;;;3.70;2.88;;;6.50;99.90;;;;;;5066723;28;20028;-38
2022/10/09 00:05:31;;;;;;;4.68;2.95;;;6.40;99.90;;;;;;5069276;28;20032;-39
2022/10/09 00:07:57;;;;;;;7.05;3.85;;;6.40;99.90;;;;;;5065437;28;20390;-39
2022/10/09 00:10:23;;;;;;;8.90;3.00;;;6.40;99.90;;;;;;5066546;28;20090;-39
2022/10/09 00:12:48;;;;;;;3.20;2.90;;;6.50;99.90;;;;;;5068906;28;20035;-34
2022/10/09 00:15:14;;;;;;;4.18;2.70;;;6.30;99.90;;;;;;5065983;28;20804;-39
2022/10/09 00:17:39;;;;;;;2.58;2.17;;;6.20;99.90;;;;;;5065170;28;20036;-39
2022/10/09 00:20:05;;;;;;;4.32;3.15;;;6.20;99.90;;;;;;5065500;28;20017;-34
2022/10/09 00:22:32;;;;;;;3.05;2.38;;;6.20;99.90;;;;;;5062522;28;20074;-37
2022/10/09 00:24:57;;;;;;;3.22;2.40;;;6.20;99.90;;;;;;5048370;28;20772;-38
2022/10/09 00:27:24;;;;;;;2.45;2.22;;;6.30;99.90;;;;;;5064735;28;20166;-36
2022/10/09 00:29:50;;;;;;;3.00;2.40;;;6.30;99.90;;;;;;5069685;28;20036;-36
2022/10/09 00:32:16;;;;;;;3.17;2.25;;;6.30;99.90;;;;;;5064520;28;20040;-38
2022/10/09 00:34:42;;;;;;;4.30;2.53;;;6.20;99.90;;;;;;5067445;28;20708;-35
2022/10/09 00:37:07;;;;;;;4.32;2.45;;;6.20;99.90;;;;;;5058638;28;20025;-39
2022/10/09 00:39:33;;;;;;;2.67;2.40;;;6.20;99.90;;;;;;5067570;28;20032;-35
2022/10/09 00:42:00;;;;;;;3.10;2.33;;;6.10;99.90;;;;;;5070182;28;20036;-38
2022/10/09 00:44:50;;;;;;;3.33;2.90;;;6.10;99.90;;;;;;5068541;28;20388;-33
2022/10/09 00:47:41;;;;;;;7.22;2.80;;;6.10;99.90;;;;;;5064612;28;20021;-33
2022/10/09 00:50:17;;;;;;;3.05;2.78;;;6.00;99.90;;;;;;5059480;28;20035;-37
2022/10/09 00:52:44;;;;;;;3.55;2.83;;;6.10;99.90;;;;;;5067172;28;20025;-38
2022/10/09 00:55:10;;;;;;;4.38;3.35;;;6.10;99.90;;;;;;5069482;28;20473;-37
2022/10/09 00:57:38;;;;;;;5.05;2.92;;;6.10;99.90;;;;;;5064079;28;20102;-37
2022/10/09 01:00:08;;;;;;;5.13;3.05;;;6.10;99.90;;;;;;5066249;28;20708;-34
2022/10/09 01:02:34;;;;;;;2.92;2.50;;;6.20;99.90;;;;;;5067388;28;20032;-39
2022/10/09 01:04:59;;;;;;;4.63;2.25;;;6.20;99.90;;;;;;5066278;28;20032;-38
2022/10/09 01:07:56;;;;;;;3.22;2.30;;;5.90;99.90;;;;;;5070175;28;20031;-38
2022/10/09 01:10:40;;;;;;;3.90;2.15;;;5.70;99.90;;;;;;5065573;28;20099;-30
2022/10/09 01:13:22;;;;;;;3.60;2.55;;;5.80;99.90;;;;;;5068060;28;20473;-35
2022/10/09 01:15:50;;;;;;;2.63;2.42;;;5.70;99.90;;;;;;5066716;28;20074;-39
2022/10/09 01:18:27;;;;;;;2.63;2.22;;;5.70;99.90;;;;;;5071312;28;20027;-39
2022/10/09 01:21:05;;;;;;;2.65;2.45;;;5.70;99.90;;;;;;5068087;28;20451;-38
2022/10/09 01:23:45;;;;;;;2.70;2.50;;;5.70;99.90;;;;;;5067215;28;20466;-34
2022/10/09 01:26:24;;;;;;;5.22;2.22;;;5.70;99.90;;;;;;5062698;28;20793;-38
2022/10/09 01:28:58;;;;;;;2.10;2.00;;;5.70;99.90;;;;;;5063731;28;20028;-39
2022/10/09 01:31:28;;;;;;;2.50;2.30;;;5.60;99.90;;;;;;5075038;28;20034;-36
2022/10/09 01:33:54;;;;;;;2.78;2.00;;;5.60;99.90;;;;;;5088367;28;20063;-34
2022/10/09 01:36:21;;;;;;;1.92;1.83;;;5.60;99.90;;;;;;5084953;28;20481;-39
2022/10/09 01:38:48;;;;;;;2.72;2.00;;;5.70;99.90;;;;;;5088644;28;20448;-37
2022/10/09 01:41:14;;;;;;;2.13;2.03;;;5.70;99.90;;;;;;5090848;28;20012;-39
2022/10/09 01:43:40;;;;;;;2.17;2.05;;;5.70;99.90;;;;;;5087612;28;20028;-39
2022/10/09 01:46:30;;;;;;;2.63;2.30;;;5.70;99.90;;;;;;5087184;28;20028;-38
2022/10/09 01:49:16;;;;;;;2.50;2.30;;;5.80;99.90;;;;;;5089216;28;20031;-33
2022/10/09 01:52:04;;;;;;;3.47;2.22;;;5.80;99.90;;;;;;5085996;28;20032;-32
2022/10/09 01:54:34;;;;;;;2.78;2.33;;;5.80;99.90;;;;;;5084698;28;20575;-32
2022/10/09 01:57:02;;;;;;;3.00;2.80;;;5.80;99.90;;;;;;5088821;28;20420;-38
2022/10/09 01:59:29;;;;;;;2.00;1.90;;;5.80;99.90;;;;;;5088114;28;20082;-38
2022/10/09 02:01:56;;;;;;;2.17;2.08;;;5.70;99.90;;;;;;5084989;28;20036;-39
2022/10/09 02:04:23;;;;;;;1.85;1.75;;;5.70;99.90;;;;;;5086620;28;20070;-37
2022/10/09 02:06:49;;;;;;;1.98;1.88;;;5.60;99.90;;;;;;5091882;28;20488;-38
2022/10/09 02:09:16;;;;;;;2.03;1.90;;;5.50;99.90;;;;;;5090699;28;20386;-36
2022/10/09 02:11:46;;;;;;;2.55;2.13;;;5.30;99.90;;;;;;5087176;28;20069;-37
2022/10/09 02:14:12;;;;;;;4.40;2.78;;;5.40;99.90;;;;;;5087262;28;20039;-37
2022/10/09 02:16:40;;;;;;;5.65;2.78;;;5.40;99.90;;;;;;5088619;28;20572;-38
2022/10/09 02:19:18;;;;;;;3.45;2.67;;;5.50;99.90;;;;;;5085524;28;20108;-37
2022/10/09 02:21:45;;;;;;;2.83;2.45;;;5.50;99.90;;;;;;5087985;28;20663;-33
2022/10/09 02:24:15;;;;;;;2.42;2.22;;;5.50;99.90;;;;;;5082001;28;20035;-31
2022/10/09 02:26:41;;;;;;;2.88;2.67;;;5.50;99.90;;;;;;5081597;28;20059;-38
2022/10/09 02:29:08;;;;;;;2.80;2.60;;;5.50;99.90;;;;;;5084413;28;20090;-37
2022/10/09 02:31:36;;;;;;;4.22;2.60;;;5.40;99.90;;;;;;5091384;28;20039;-33
2022/10/09 02:34:11;;;;;;;6.75;2.80;;;5.40;99.90;;;;;;5088883;28;20106;-36
2022/10/09 02:36:37;;;;;;;2.00;1.90;;;5.40;99.90;;;;;;5088242;28;20089;-29
2022/10/09 02:39:04;;;;;;;3.35;2.10;;;5.30;99.90;;;;;;5090595;28;20036;-37
2022/10/09 02:41:30;;;;;;;3.25;2.40;;;5.30;99.90;;;;;;5090329;28;20110;-35
2022/10/09 02:43:56;;;;;;;1.83;1.73;;;5.40;99.90;;;;;;5089905;28;20095;-39
2022/10/09 02:46:22;;;;;;;3.38;2.15;;;5.30;99.90;;;;;;5094616;28;20371;-38
2022/10/09 02:48:47;;;;;;;3.60;2.03;;;5.30;99.90;;;;;;5087410;28;20040;-37
2022/10/09 02:51:13;;;;;;;2.08;1.88;;;5.20;99.90;;;;;;5089299;28;20036;-38
2022/10/09 02:53:39;;;;;;;2.30;2.10;;;5.20;99.90;;;;;;5088283;28;20116;-33
2022/10/09 02:56:05;;;;;;;3.30;2.35;;;5.20;99.90;;;;;;5092469;28;20028;-36
2022/10/09 02:58:32;;;;;;;2.85;2.38;;;5.20;99.90;;;;;;5090684;28;20043;-32
2022/10/09 03:00:57;;;;;;;6.38;2.70;;;5.20;99.90;;;;;;5089218;28;20392;-35
2022/10/09 03:03:23;;;;;;;4.03;3.10;;;5.20;99.90;;;;;;5094408;28;20031;-39
2022/10/09 03:06:08;;;;;;;3.90;2.95;;;5.40;99.90;;;;;;5086846;28;20036;-38
2022/10/09 03:08:34;;;;;;;7.28;3.40;;;5.40;99.90;;;;;;5093403;28;20058;-37
2022/10/09 03:11:00;;;;;;;5.07;2.83;;;5.40;99.90;;;;;;5084494;28;20509;-33
2022/10/09 03:13:26;;;;;;;5.13;2.72;;;5.40;99.90;;;;;;5092161;28;20032;-38
2022/10/09 03:15:51;;;;;;;3.35;3.05;;;5.40;99.90;;;;;;5086707;28;20047;-38
2022/10/09 03:18:18;;;;;;;5.80;3.17;;;5.30;99.90;;;;;;5088776;28;20042;-35
2022/10/09 03:20:43;;;;;;;2.47;2.28;;;5.30;99.90;;;;;;5087979;28;20028;-38
2022/10/09 03:23:09;;;;;;;3.35;2.38;;;5.20;99.90;;;;;;5091488;28;20044;-39
2022/10/09 03:25:35;;;;;;;11.43;2.50;;;5.10;99.90;;;;;;5093108;28;20035;-37
2022/10/09 03:28:01;;;;;;;3.45;2.40;;;5.00;99.90;;;;;;5086208;28;20032;-39
2022/10/09 03:30:26;;;;;;;2.95;2.33;;;5.00;99.90;;;;;;5093283;28;20473;-38
2022/10/09 03:32:52;;;;;;;2.90;2.60;;;4.90;99.90;;;;;;5092905;28;20115;-39
2022/10/09 03:35:17;;;;;;;2.90;2.50;;;4.90;99.90;;;;;;5088780;28;20030;-38
2022/10/09 03:37:43;;;;;;;3.45;2.55;;;4.90;99.90;;;;;;5090688;28;20385;-38
2022/10/09 03:40:09;;;;;;;4.35;2.63;;;4.90;99.90;;;;;;5086340;28;20024;-38
2022/10/09 03:42:35;;;;;;;5.35;3.13;;;5.00;99.90;;;;;;5089584;28;20032;-36
2022/10/09 03:45:03;;;;;;;2.78;2.58;;;5.00;99.90;;;;;;5092799;28;20470;-37
2022/10/09 03:47:29;;;;;;;4.82;3.70;;;5.10;99.90;;;;;;5089965;28;20043;-32
2022/10/09 03:49:55;;;;;;;3.95;2.95;;;5.20;99.90;;;;;;5094087;28;20031;-39
2022/10/09 03:52:21;;;;;;;2.75;2.45;;;5.30;99.90;;;;;;5089884;28;20047;-37
2022/10/09 03:54:46;;;;;;;4.25;2.95;;;5.30;99.90;;;;;;5084631;28;20039;-38
2022/10/09 03:57:12;;;;;;;2.63;2.35;;;5.30;99.90;;;;;;5089688;28;20683;-38
2022/10/09 03:59:37;;;;;;;2.65;2.45;;;5.20;99.90;;;;;;5088226;28;20024;-38
2022/10/09 04:02:03;;;;;;;2.75;2.53;;;5.10;99.90;;;;;;5088184;28;20054;-37
2022/10/09 04:04:28;;;;;;;5.13;2.83;;;5.10;99.90;;;;;;5085050;28;20046;-38
2022/10/09 04:06:54;;;;;;;3.05;2.33;;;5.10;99.90;;;;;;5086520;28;20028;-38
2022/10/09 04:09:19;;;;;;;3.28;2.40;;;5.10;99.90;;;;;;5091775;28;20384;-39
2022/10/09 04:11:45;;;;;;;31.23;6.65;;;5.00;99.90;;;;;;5088620;28;20032;-39
2022/10/09 04:14:11;;;;;;;3.58;2.78;;;4.90;99.90;;;;;;5091014;28;20618;-37
2022/10/09 04:16:36;;;;;;;6.72;3.42;;;4.80;99.90;;;;;;5084899;28;20389;-31
2022/10/09 04:19:02;;;;;;;12.32;3.63;;;4.80;99.90;;;;;;5091469;28;20032;-38
2022/10/09 04:21:27;;;;;;;4.22;3.00;;;4.70;99.90;;;;;;5087314;28;20066;-33
2022/10/09 04:23:53;;;;;;;4.20;3.38;;;4.80;99.90;;;;;;5086712;28;20031;-38
2022/10/09 04:26:19;;;;;;;4.18;3.05;;;4.90;99.90;;;;;;5091712;28;20032;-39
2022/10/09 04:28:44;;;;;;;4.10;3.53;;;5.00;99.90;;;;;;5083930;28;20138;-39
2022/10/09 04:31:10;;;;;;;3.15;2.83;;;5.00;99.90;;;;;;5085187;28;20032;-38
2022/10/09 04:33:36;;;;;;;5.55;3.60;;;5.00;99.90;;;;;;5088059;28;20032;-39
2022/10/09 04:36:01;;;;;;;10.90;5.45;;;5.00;99.90;;;;;;5081949;28;21283;-39
2022/10/09 04:38:29;;;;;;;15.52;7.88;;;5.00;99.90;;;;;;5084765;28;20477;-36
2022/10/09 04:41:01;;;;;;;9.93;4.85;;;5.00;99.90;;;;;;5092900;28;20027;-39
2022/10/09 04:43:27;;;;;;;5.93;3.30;;;5.00;99.90;;;;;;5087373;28;20028;-39
2022/10/09 04:45:53;;;;;;;3.42;2.90;;;4.90;99.90;;;;;;5085484;28;20569;-37
2022/10/09 04:48:19;;;;;;;4.22;3.10;;;4.80;99.90;;;;;;5090189;28;20119;-34
2022/10/09 04:50:44;;;;;;;5.97;3.35;;;4.90;99.90;;;;;;5093036;28;20058;-39
2022/10/09 04:53:10;;;;;;;3.70;2.95;;;4.90;99.90;;;;;;5086126;28;20024;-39
2022/10/09 04:55:40;;;;;;;2.75;2.55;;;4.80;99.90;;;;;;5085772;28;20073;-35
2022/10/09 04:58:06;;;;;;;3.55;2.83;;;4.90;99.90;;;;;;5083967;28;20047;-38
2022/10/09 05:00:32;;;;;;;3.05;2.75;;;5.00;99.90;;;;;;5084711;28;20534;-39
2022/10/09 05:02:58;;;;;;;2.90;2.65;;;5.10;99.90;;;;;;5090317;28;20039;-30
2022/10/09 05:05:23;;;;;;;2.90;2.70;;;5.00;99.90;;;;;;5084214;28;20028;-35
2022/10/09 05:07:49;;;;;;;3.30;3.00;;;5.00;99.90;;;;;;5085622;28;20451;-33
2022/10/09 05:10:14;;;;;;;2.85;2.63;;;5.00;99.90;;;;;;5089689;28;20571;-37
2022/10/09 05:12:40;;;;;;;4.53;2.75;;;5.00;99.90;;;;;;5090161;28;20032;-37
2022/10/09 05:15:06;;;;;;;3.90;2.90;;;5.00;99.90;;;;;;5084665;28;20485;-38
2022/10/09 05:17:31;;;;;;;43.53;6.50;;;5.10;99.90;;;;;;5086053;28;20838;-31
2022/10/09 05:19:57;;;;;;;3.85;2.85;;;5.00;99.90;;;;;;5089231;28;20034;-37
2022/10/09 05:22:23;;;;;;;3.53;2.83;;;4.90;99.90;;;;;;5084495;28;20094;-36
2022/10/09 05:24:48;;;;;;;2.85;2.58;;;4.90;99.90;;;;;;5094169;28;20480;-32
2022/10/09 05:27:17;;;;;;;3.00;2.70;;;4.90;99.90;;;;;;5088800;28;20384;-39
2022/10/09 05:29:42;;;;;;;9.05;2.97;;;4.80;99.90;;;;;;5089616;28;20039;-38
2022/10/09 05:32:08;;;;;;;11.27;3.28;;;4.90;99.90;;;;;;5084223;28;20489;-39
2022/10/09 05:34:34;;;;;;;7.38;3.50;;;4.80;99.90;;;;;;5083569;28;20028;-34
2022/10/09 05:37:00;;;;;;;20.60;4.32;;;4.80;99.90;;;;;;5086187;28;20842;-39
2022/10/09 05:39:25;;;;;;;3.88;3.15;;;4.80;99.90;;;;;;5082699;28;20040;-38
2022/10/09 05:41:51;;;;;;;5.00;3.33;;;4.80;99.90;;;;;;5083269;28;20024;-38
2022/10/09 05:44:16;;;;;;;8.43;3.05;;;4.80;99.90;;;;;;5087159;28;20035;-38
2022/10/09 05:46:42;;;;;;;3.15;2.65;;;4.80;99.90;;;;;;5084817;28;20427;-38
2022/10/09 05:49:10;;;;;;;3.80;3.38;;;4.80;99.90;;;;;;5081917;28;20036;-39
2022/10/09 05:51:37;;;;;;;3.92;3.45;;;4.90;99.90;;;;;;5088612;28;20032;-36
2022/10/09 05:54:04;;;;;;;8.30;3.90;;;4.90;99.90;;;;;;5082672;28;20401;-33
2022/10/09 05:56:33;;;;;;;9.20;3.22;;;5.00;99.90;;;;;;5086313;28;20028;-34
2022/10/09 05:59:01;;;;;;;4.68;3.65;;;4.90;99.90;;;;;;5084441;28;20035;-37
2022/10/09 06:01:30;;;;;;;5.57;3.95;;;4.90;99.90;;;;;;5118498;27;20029;-38
2022/10/09 06:03:57;;;;;;;6.60;4.40;;;5.00;99.90;;;;;;5089824;28;20035;-39
2022/10/09 06:06:26;;;;;;;6.25;4.68;;;5.20;99.90;;;;;;5081851;28;20749;-31
2022/10/09 06:08:53;;;;;;;5.72;4.50;;;5.30;99.90;;;;;;5090857;28;20032;-34
2022/10/09 06:11:21;;;;;;;9.27;4.47;;;5.30;99.90;;;;;;5089325;28;20275;-32
2022/10/09 06:13:47;;;;;;;6.38;5.22;;;5.40;99.90;;;;;;5095539;28;20027;-38
2022/10/09 06:16:15;;;;;;;6.50;4.45;;;5.50;99.90;;;;;;5088374;28;20040;-38
2022/10/09 06:18:45;;;;;;;5.32;4.40;;;5.50;99.90;;;;;;5089378;28;20048;-38
2022/10/09 06:21:11;;;;;;;7.22;4.75;;;5.50;99.90;;;;;;5092594;28;20036;-37
2022/10/09 06:23:36;;;;;;;5.55;4.60;;;5.50;99.90;;;;;;5087908;28;20031;-39
2022/10/09 06:26:12;;;;;;;6.95;4.15;;;5.60;99.90;;;;;;5089375;28;20114;-30
2022/10/09 06:28:38;;;;;;;5.85;4.97;;;5.60;99.90;;;;;;5088149;28;20032;-38
2022/10/09 06:31:13;;;;;;;7.93;5.10;;;5.60;99.90;;;;;;5087979;28;20031;-38
2022/10/09 06:33:40;;;;;;;6.03;4.45;;;5.60;99.90;;;;;;5087510;28;20047;-36
2022/10/09 06:36:09;;;;;;;10.15;5.22;;;5.60;99.90;;;;;;5085288;28;20055;-34
2022/10/09 06:38:36;;;;;;;7.93;5.07;;;5.60;99.90;;;;;;5087795;28;20024;-37
2022/10/09 06:41:03;;;;;;;5.47;4.22;;;5.60;99.90;;;;;;5091487;28;20027;-37
2022/10/09 06:43:29;;;;;;;7.78;4.80;;;5.50;99.90;;;;;;5090222;28;20028;-36
2022/10/09 06:45:55;;;;;;;9.05;4.05;;;5.60;99.90;;;;;;5086797;28;20039;-34
2022/10/09 06:48:20;;;;;;;6.40;4.10;;;5.60;99.90;;;;;;5089674;28;20527;-38
2022/10/09 06:50:46;;;;;;;4.72;4.25;;;5.60;99.90;;;;;;5084129;28;20169;-38
2022/10/09 06:53:11;;;;;;;6.43;4.03;;;5.60;99.90;;;;;;5088418;28;20144;-38
2022/10/09 06:55:37;;;;;;;6.97;3.90;;;5.70;99.90;;;;;;5088574;28;20028;-38
2022/10/09 06:58:03;;;;;;;7.25;4.78;;;5.70;99.90;;;;;;5083901;28;20051;-37
2022/10/09 07:00:28;;;;;;;7.65;5.07;;;5.70;99.90;;;;;;5087134;28;20035;-38
2022/10/09 07:02:54;;;;;;;10.25;5.70;;;5.80;99.90;;;;;;5086098;28;20400;-38
2022/10/09 07:05:20;;;;;;;9.50;5.70;;;6.00;99.90;;;;;;5083352;28;20024;-35
2022/10/09 07:07:46;;;;;;;10.07;6.03;;;6.10;99.90;;;;;;5091063;28;20107;-39
2022/10/09 07:10:11;;;;;;;9.32;5.78;;;6.20;99.90;;;;;;5088798;28;20024;-37
2022/10/09 07:12:37;;;;;;;7.70;5.95;;;6.30;99.90;;;;;;5087171;28;20161;-39
2022/10/09 07:15:04;;;;;;;10.25;5.80;;;6.40;99.90;;;;;;5088278;28;20096;-39
2022/10/09 07:17:30;;;;;;;19.42;5.90;;;6.40;99.90;;;;;;5082698;28;20039;-35
2022/10/09 07:19:56;;;;;;;10.73;5.65;;;6.50;99.90;;;;;;5089445;28;20024;-40
2022/10/09 07:22:21;;;;;;;10.82;7.80;;;6.70;99.90;;;;;;5089339;28;20488;-39
2022/10/09 07:24:49;;;;;;;10.15;6.25;;;6.80;99.90;;;;;;5089465;28;20392;-37
2022/10/09 07:27:15;;;;;;;9.27;6.28;;;6.90;99.90;;;;;;5084963;28;20039;-34
2022/10/09 07:29:40;;;;;;;10.95;6.57;;;7.10;99.90;;;;;;5087474;28;20032;-32
2022/10/09 07:32:06;;;;;;;14.88;7.35;;;7.30;99.90;;;;;;5074026;28;20028;-37
2022/10/09 07:34:31;;;;;;;11.55;7.25;;;7.40;99.90;;;;;;5068809;28;20047;-36
2022/10/09 07:36:57;;;;;;;17.58;7.65;;;7.50;99.90;;;;;;5063561;28;20806;-36
2022/10/09 07:39:23;;;;;;;10.63;7.22;;;7.70;99.90;;;;;;5066646;28;20399;-36
2022/10/09 07:41:50;;;;;;;13.35;6.75;;;7.70;99.90;;;;;;5068931;28;20062;-37
2022/10/09 07:44:16;;;;;;;12.15;7.18;;;7.90;99.90;;;;;;5068634;28;20032;-38
2022/10/09 07:46:42;;;;;;;14.85;7.63;;;8.00;99.90;;;;;;5068313;28;20028;-34
2022/10/09 07:49:08;;;;;;;9.95;5.95;;;8.10;99.90;;;;;;5063663;28;20043;-37
2022/10/09 07:51:33;;;;;;;17.35;5.47;;;8.20;99.90;;;;;;5068095;28;20028;-35
2022/10/09 07:54:00;;;;;;;7.95;6.13;;;8.40;99.90;;;;;;5065487;28;20413;-38
2022/10/09 07:56:28;;;;;;;7.30;4.90;;;8.50;99.90;;;;;;5067886;28;20033;-37
2022/10/09 07:58:56;;;;;;;7.28;4.65;;;8.50;99.90;;;;;;5068341;28;20052;-37
2022/10/09 08:01:23;;;;;;;9.40;5.03;;;8.50;99.90;;;;;;5067828;28;20378;-38
2022/10/09 08:03:49;;;;;;;9.30;4.70;;;8.60;99.90;;;;;;5061376;28;20516;-39
2022/10/09 08:06:16;;;;;;;9.68;4.57;;;8.60;99.90;;;;;;5068323;28;20048;-38
2022/10/09 08:08:42;;;;;;;5.68;4.30;;;8.70;99.90;;;;;;5065789;28;20032;-38
2022/10/09 08:11:09;;;;;;;6.78;5.05;;;8.80;99.90;;;;;;5069489;28;20033;-38
2022/10/09 08:13:35;;;;;;;9.45;5.13;;;8.80;99.90;;;;;;5065942;28;20038;-34
2022/10/09 08:16:00;;;;;;;9.82;5.30;;;8.90;99.90;;;;;;5064459;28;20536;-39
2022/10/09 08:18:26;;;;;;;8.25;4.97;;;8.90;99.90;;;;;;5061531;28;20566;-38
2022/10/09 08:20:59;;;;;;;9.15;4.78;;;8.90;99.90;;;;;;5069412;28;20033;-39
2022/10/09 08:23:25;;;;;;;8.38;4.38;;;9.00;99.90;;;;;;5067033;28;20031;-38
2022/10/09 08:25:51;;;;;;;7.15;4.25;;;9.00;99.90;;;;;;5062742;28;20020;-38
2022/10/09 08:28:17;;;;;;;9.38;4.85;;;9.10;99.90;;;;;;5061922;28;20040;-38
2022/10/09 08:30:43;;;;;;;10.48;5.50;;;9.10;99.90;;;;;;5069138;28;20040;-36
2022/10/09 08:33:08;;;;;;;10.02;5.15;;;9.20;99.90;;;;;;5093554;28;20547;-37
2022/10/09 08:35:34;;;;;;;12.82;5.50;;;9.20;99.90;;;;;;5089717;28;20095;-39
2022/10/09 08:37:59;;;;;;;8.95;4.55;;;9.40;99.90;;;;;;5084286;28;20035;-37
2022/10/09 08:40:39;;;;;;;15.00;5.32;;;9.40;99.90;;;;;;5086583;28;20028;-33
2022/10/09 08:43:06;;;;;;;6.85;3.95;;;9.40;99.90;;;;;;5087739;28;20090;-37
2022/10/09 08:45:34;;;;;;;5.28;3.83;;;9.50;99.90;;;;;;5093054;28;20457;-39
2022/10/09 08:48:03;;;;;;;;;;;9.50;99.90;;;;;;5088334;28;20512;-37
2022/10/09 08:50:33;;;;;;;4.80;3.70;;;9.70;99.90;;;;;;5088453;28;19907;-39
2022/10/09 08:53:30;;;;;;;10.85;4.55;;;9.70;99.90;;;;;;5086931;28;20603;-39
2022/10/09 08:56:01;;;;;;;5.65;3.88;;;9.80;99.90;;;;;;5087984;28;20039;-31
2022/10/09 08:58:33;;;;;;;9.73;4.22;;;9.70;99.90;;;;;;5086905;28;20043;-38
2022/10/09 09:01:23;;;;;;;8.45;4.80;;;9.80;99.90;;;;;;5085966;28;20078;-39
2022/10/09 09:04:11;;;;;;;5.28;3.40;;;9.90;99.90;;;;;;5084763;28;20028;-38
2022/10/09 09:06:54;;;;;;;4.38;3.58;;;9.90;99.90;;;;;;5086181;28;20095;-38
2022/10/09 09:09:35;;;;;;;5.78;3.40;;;10.00;99.90;;;;;;5082627;28;20848;-37
2022/10/09 09:12:08;;;;;;;4.40;3.83;;;10.10;99.90;;;;;;5086060;28;20074;-39
2022/10/09 09:14:52;;;;;;;6.70;3.47;;;10.10;99.90;;;;;;5080263;28;20031;-39
2022/10/09 09:17:41;;;;;;;6.10;3.72;;;10.20;99.90;;;;;;5086852;28;20040;-39
2022/10/09 09:20:13;;;;;;;3.85;3.25;;;10.30;99.90;;;;;;5084874;28;20469;-37
2022/10/09 09:22:41;;;;;;;7.15;3.63;;;10.30;99.90;;;;;;5087449;28;20028;-39
2022/10/09 09:25:21;;;;;;;;;;;10.40;99.90;;;;;;5084839;28;20032;-36
2022/10/09 09:27:48;;;;;;;5.97;3.53;;;10.40;99.90;;;;;;5092034;28;19931;-39
2022/10/09 09:30:29;;;;;;;4.60;3.50;;;10.50;99.90;;;;;;5084721;28;20043;-39
2022/10/09 09:33:09;;;;;;;5.25;3.72;;;10.50;99.90;;;;;;5080614;28;20042;-38
2022/10/09 09:35:55;;;;;;;6.97;4.18;;;10.50;99.90;;;;;;5085017;28;20028;-35
2022/10/09 09:38:20;;;;;;;5.72;4.07;;;10.70;99.90;;;;;;5084343;28;20066;-35
2022/10/09 09:40:47;;;;;;;8.73;3.90;;;10.70;99.90;;;;;;5078562;28;20537;-33
2022/10/09 09:43:18;;;;;;;6.22;3.83;;;10.90;99.90;;;;;;5082048;28;21588;-35
2022/10/09 09:45:44;;;;;;;6.60;4.05;;;10.90;99.90;;;;;;5082462;28;20032;-39
2022/10/09 09:48:38;;;;;;;5.40;3.88;;;11.00;99.90;;;;;;5083067;28;20606;-38
2022/10/09 09:51:26;;;;;;;5.82;4.10;;;11.10;99.90;;;;;;5080454;28;20040;-39
2022/10/09 09:53:53;;;;;;;;;;;11.20;99.90;;;;;;5084165;28;20366;-37
2022/10/09 09:56:19;;;;;;;5.53;3.80;;;11.30;99.90;;;;;;5080166;28;19916;-37
2022/10/09 09:58:52;;;;;;;7.03;3.60;;;11.40;99.90;;;;;;5084590;28;20520;-39
2022/10/09 10:01:27;;;;;;;5.45;3.95;;;11.50;99.90;;;;;;5075503;28;20056;-38
2022/10/09 10:03:55;;;;;;;7.50;3.90;;;11.50;99.90;;;;;;5067795;28;20027;-33
2022/10/09 10:06:33;;;;;;;6.28;4.05;;;11.60;99.90;;;;;;5058475;28;20063;-39
2022/10/09 10:09:13;;;;;;;6.45;3.92;;;11.50;99.90;;;;;;5060115;28;21208;-33
2022/10/09 10:12:04;;;;;;;7.45;4.63;;;11.60;99.90;;;;;;5062313;28;22002;-39
2022/10/09 10:14:31;;;;;;;5.90;3.97;;;11.60;99.90;;;;;;5055566;28;20093;-39
2022/10/09 10:16:59;;;;;;;5.38;4.18;;;11.60;99.90;;;;;;5063237;28;20043;-35
2022/10/09 10:19:27;;;;;;;5.43;4.07;;;11.60;99.90;;;;;;5066479;28;20029;-38
2022/10/09 10:22:20;;;;;;;8.30;4.63;;;11.70;99.90;;;;;;5061902;28;20123;-35
2022/10/09 10:24:48;;;;;;;5.65;4.32;;;11.80;99.90;;;;;;5067579;28;20040;-38
2022/10/09 10:27:28;;;;;;;5.43;3.83;;;11.80;99.90;;;;;;5067845;28;20669;-35
2022/10/09 10:29:59;;;;;;;10.95;4.50;;;12.00;99.90;;;;;;5067597;28;20020;-37
2022/10/09 10:32:43;;;;;;;7.20;4.75;;;12.00;99.90;;;;;;5081726;28;20049;-39
2022/10/09 10:35:16;;;;;;;8.00;4.82;;;12.10;99.90;;;;;;5085761;28;20127;-37
2022/10/09 10:37:59;;;;;;;9.45;4.18;;;12.20;99.90;;;;;;5081878;28;20040;-38
2022/10/09 10:40:41;;;;;;;7.50;4.60;;;12.30;99.90;;;;;;5082453;28;20020;-33
2022/10/09 10:43:09;;;;;;;5.55;4.38;;;12.30;99.90;;;;;;5085933;28;20040;-36
2022/10/09 10:45:47;;;;;;;5.95;3.97;;;12.30;99.90;;;;;;5084240;28;20597;-34
2022/10/09 10:48:40;;;;;;;7.82;4.80;;;12.30;99.90;;;;;;5088156;28;20096;-39
2022/10/09 10:51:30;;;;;;;10.93;4.43;;;12.50;99.90;;;;;;5078658;28;20633;-37
2022/10/09 10:54:14;;;;;;;5.13;4.00;;;12.50;99.90;;;;;;5087376;28;20066;-37
2022/10/09 10:56:52;;;;;;;6.70;4.13;;;12.50;99.90;;;;;;5085621;28;20055;-37
2022/10/09 10:59:49;;;;;;;6.47;3.33;;;12.50;99.90;;;;;;5087635;28;20416;-37
2022/10/09 11:02:25;;;;;;;5.78;3.42;;;12.50;99.90;;;;;;5088055;28;20031;-38
2022/10/09 11:05:26;;;;;;;5.03;3.15;;;12.50;99.90;;;;;;5087430;28;20453;-39
2022/10/09 11:07:51;;;;;;;6.25;3.90;;;12.50;99.90;;;;;;5088212;28;20488;-37
2022/10/09 11:10:41;;;;;;;6.43;3.42;;;12.70;99.90;;;;;;5088553;28;20036;-33
2022/10/09 11:13:26;;;;;;;4.63;3.65;;;12.80;99.90;;;;;;5085876;28;20151;-34
2022/10/09 11:16:13;;;;;;;5.93;3.17;;;12.90;99.90;;;;;;5087203;28;20024;-38
2022/10/09 11:19:23;;;;;;;4.75;3.15;;;12.90;99.90;;;;;;5083049;28;20112;-39
2022/10/09 11:22:07;;;;;;;4.38;3.33;;;12.80;99.90;;;;;;5077108;28;20040;-38
2022/10/09 11:24:56;;;;;;;6.60;3.65;;;12.80;99.90;;;;;;5085283;28;20028;-38
2022/10/09 11:27:50;;;;;;;5.35;3.60;;;12.80;99.90;;;;;;5075062;28;20522;-35
2022/10/09 11:30:17;;;;;;;5.47;3.40;;;13.00;99.90;;;;;;5087941;28;20051;-37
2022/10/09 11:33:01;;;;;;;5.90;3.72;;;13.00;99.90;;;;;;5089185;28;20085;-39
2022/10/09 11:35:43;;;;;;;5.13;3.75;;;13.00;99.90;;;;;;5084691;28;20038;-38
2022/10/09 11:38:20;;;;;;;6.55;3.97;;;13.10;99.90;;;;;;5087297;28;20024;-37
2022/10/09 11:40:46;;;;;;;4.82;3.70;;;13.10;99.90;;;;;;5094300;28;20063;-37
2022/10/09 11:43:27;;;;;;;7.57;3.92;;;13.10;99.90;;;;;;5086690;28;20028;-37
2022/10/09 11:46:03;;;;;;;8.13;4.03;;;13.10;99.90;;;;;;5087356;28;20028;-38
2022/10/09 11:48:29;;;;;;;6.78;3.65;;;13.10;99.90;;;;;;5085508;28;20041;-34
2022/10/09 11:51:06;;;;;;;6.28;3.80;;;13.10;99.90;;;;;;5086043;28;20427;-35
2022/10/09 11:53:35;;;;;;;5.93;3.80;;;13.10;99.90;;;;;;5085101;28;20039;-38
2022/10/09 11:56:07;;;;;;;6.22;3.97;;;13.10;99.90;;;;;;5086859;28;20135;-39
2022/10/09 11:58:33;;;;;;;7.50;4.28;;;13.10;99.90;;;;;;5088741;28;20468;-33
2022/10/09 12:01:21;;;;;;;6.07;3.88;;;13.10;99.90;;;;;;5086377;28;20119;-36
2022/10/09 12:03:59;;;;;;;6.18;4.10;;;13.00;99.90;;;;;;5091175;28;20032;-38
2022/10/09 12:06:25;;;;;;;7.38;4.43;;;13.00;99.90;;;;;;5085761;28;20465;-36
2022/10/09 12:09:05;;;;;;;5.53;3.97;;;13.00;99.90;;;;;;5085986;28;20058;-34
2022/10/09 12:11:32;;;;;;;8.10;3.80;;;13.00;99.90;;;;;;5099615;27;20057;-37
2022/10/09 12:14:04;;;;;;;5.55;3.65;;;13.10;99.90;;;;;;5088958;28;20471;-38
2022/10/09 12:16:44;;;;;;;5.30;3.45;;;13.10;99.90;;;;;;5084175;28;20115;-34
2022/10/09 12:19:22;;;;;;;4.03;3.22;;;13.10;99.90;;;;;;5083904;28;20045;-38
2022/10/09 12:22:01;;;;;;;9.50;4.20;;;13.10;99.90;;;;;;5086783;28;20484;-37
2022/10/09 12:24:37;;;;;;;5.30;3.60;;;13.20;99.90;;;;;;5088731;28;20280;-35
2022/10/09 12:27:04;;;;;;;5.90;4.43;;;13.20;99.90;;;;;;5086165;28;20604;-38
2022/10/09 12:29:42;;;;;;;4.72;3.30;;;13.30;99.90;;;;;;5086667;28;20032;-35
2022/10/09 12:32:22;;;;;;;6.57;3.60;;;13.30;99.90;;;;;;5086356;28;20040;-36
2022/10/09 12:34:49;;;;;;;5.80;3.30;;;13.40;99.90;;;;;;5087171;28;20028;-36
2022/10/09 12:37:32;;;;;;;5.32;3.88;;;13.40;99.90;;;;;;5088050;28;20400;-37
2022/10/09 12:40:07;;;;;;;5.55;3.53;;;13.40;99.90;;;;;;5087141;28;20116;-36
2022/10/09 12:42:33;;;;;;;6.78;3.53;;;13.50;99.90;;;;;;5087200;28;20582;-38
2022/10/09 12:44:58;;;;;;;8.52;4.03;;;13.50;99.90;;;;;;5087501;28;20110;-38
2022/10/09 12:47:28;;;;;;;6.20;3.55;;;13.50;99.90;;;;;;5085985;28;20404;-38
2022/10/09 12:50:03;;;;;;;7.47;3.97;;;13.60;99.90;;;;;;5084765;28;20060;-36
2022/10/09 12:52:31;;;;;;;6.60;4.00;;;13.60;99.90;;;;;;5085221;28;20777;-38
2022/10/09 12:54:57;;;;;;;6.40;4.13;;;13.60;99.90;;;;;;5084691;28;20107;-37
2022/10/09 12:57:23;;;;;;;6.72;4.00;;;13.50;99.90;;;;;;5089503;28;20020;-37
2022/10/09 12:59:49;;;;;;;6.05;3.53;;;13.50;99.90;;;;;;5078673;28;20040;-35
2022/10/09 13:02:19;;;;;;;5.10;3.70;;;13.50;99.90;;;;;;5082940;28;20032;-36
2022/10/09 13:04:56;;;;;;;4.70;3.38;;;13.40;99.90;;;;;;5087375;28;20032;-35
2022/10/09 13:07:26;;;;;;;4.90;3.85;;;13.40;99.90;;;;;;5101550;28;20080;-36
2022/10/09 13:10:05;;;;;;;4.95;3.72;;;13.40;99.90;;;;;;5088637;28;20063;-33